createdAt,value
2023-01-31T00:02:26.426Z,39.50
2023-01-31T00:04:54.756Z,39.25
2023-01-31T00:07:23.072Z,39.75
2023-01-31T00:09:51.662Z,41.00
2023-01-31T00:12:19.955Z,45.75
2023-01-31T00:14:48.458Z,45.00
2023-01-31T00:17:16.784Z,45.00
2023-01-31T00:19:45.119Z,45.50
2023-01-31T00:22:13.473Z,48.50
2023-01-31T00:24:41.765Z,51.25
2023-01-31T00:27:10.120Z,52.25
2023-01-31T00:29:38.527Z,51.75
2023-01-31T00:32:07.054Z,51.75
2023-01-31T00:34:35.470Z,52.50
2023-01-31T00:37:04.142Z,49.00
2023-01-31T00:39:32.449Z,51.00
2023-01-31T00:42:00.756Z,48.75
2023-01-31T00:44:29.084Z,49.50
2023-01-31T00:46:57.439Z,45.50
2023-01-31T00:49:25.765Z,46.75
2023-01-31T00:51:54.057Z,45.25
2023-01-31T00:54:22.546Z,46.00
2023-01-31T00:56:50.885Z,47.50
2023-01-31T00:59:19.259Z,47.75
2023-01-31T01:01:47.644Z,47.50
2023-01-31T01:04:15.962Z,48.25
2023-01-31T01:06:44.247Z,46.25
2023-01-31T01:09:12.578Z,47.75
2023-01-31T01:11:40.888Z,49.00
2023-01-31T01:14:09.241Z,48.00
2023-01-31T01:16:40.116Z,48.50
2023-01-31T01:19:13.726Z,48.25
2023-01-31T01:21:42.250Z,49.50
2023-01-31T01:24:15.571Z,45.50
2023-01-31T01:26:44.986Z,46.75
2023-01-31T01:29:13.947Z,45.50
2023-01-31T01:31:42.507Z,49.50
2023-01-31T01:34:15.248Z,45.25
2023-01-31T01:36:46.790Z,46.00
2023-01-31T01:39:16.267Z,43.25
2023-01-31T01:41:45.221Z,42.75
2023-01-31T01:44:50.906Z,46.50
2023-01-31T01:47:47.667Z,43.25
2023-01-31T01:50:37.927Z,39.50
2023-01-31T01:53:24.944Z,45.50
2023-01-31T01:55:58.397Z,44.25
2023-01-31T01:58:30.141Z,43.75
2023-01-31T02:01:02.573Z,44.00
2023-01-31T02:03:41.266Z,41.00
2023-01-31T02:06:09.735Z,42.50
2023-01-31T02:08:41.544Z,44.00
2023-01-31T02:11:29.783Z,42.50
2023-01-31T02:14:05.142Z,43.00
2023-01-31T02:16:33.774Z,38.00
2023-01-31T02:19:02.635Z,39.25
2023-01-31T02:21:39.664Z,41.00
2023-01-31T02:24:19.585Z,41.75
2023-01-31T02:27:18.433Z,40.25
2023-01-31T02:29:58.678Z,37.50
2023-01-31T02:32:59.840Z,40.75
2023-01-31T02:35:40.212Z,38.50
2023-01-31T02:38:24.386Z,36.00
2023-01-31T02:41:01.585Z,38.25
2023-01-31T02:44:00.157Z,35.75
2023-01-31T02:46:45.702Z,32.75
2023-01-31T02:49:38.815Z,30.75
2023-01-31T02:52:18.712Z,35.25
2023-01-31T02:55:42.527Z,31.50
2023-01-31T02:58:14.441Z,32.00
2023-01-31T03:00:46.463Z,34.25
2023-01-31T03:03:23.322Z,28.50
2023-01-31T03:06:40.278Z,30.00
2023-01-31T03:09:37.462Z,31.75
2023-01-31T03:12:24.155Z,30.00
2023-01-31T03:14:58.250Z,32.50
2023-01-31T03:18:00.428Z,32.00
2023-01-31T03:20:44.700Z,34.00
2023-01-31T03:23:19.246Z,33.25
2023-01-31T03:25:49.299Z,37.00
2023-01-31T03:28:24.364Z,40.00
2023-01-31T03:31:21.839Z,39.50
2023-01-31T03:33:53.570Z,37.75
2023-01-31T03:36:58.186Z,35.50
2023-01-31T03:39:38.644Z,38.75
2023-01-31T03:42:18.594Z,39.75
2023-01-31T03:45:11.686Z,33.75
2023-01-31T03:47:44.329Z,32.00
2023-01-31T03:50:21.534Z,35.00
2023-01-31T03:53:33.236Z,31.50
2023-01-31T03:56:50.604Z,36.00
2023-01-31T03:59:27.650Z,31.50
2023-01-31T04:02:00.640Z,32.75
2023-01-31T04:05:05.023Z,33.75
2023-01-31T04:07:33.517Z,33.25
2023-01-31T04:10:02.372Z,34.00
2023-01-31T04:12:30.781Z,35.25
2023-01-31T04:14:59.896Z,33.75
2023-01-31T04:17:28.343Z,34.00
2023-01-31T04:19:56.659Z,35.25
2023-01-31T04:22:24.937Z,35.00
2023-01-31T04:24:53.300Z,35.00
2023-01-31T04:27:21.698Z,35.25
2023-01-31T04:29:50.100Z,35.50
2023-01-31T04:32:18.546Z,34.00
2023-01-31T04:34:46.914Z,36.75
2023-01-31T04:37:15.238Z,31.25
2023-01-31T04:39:43.555Z,34.50
2023-01-31T04:44:53.246Z,34.00
2023-01-31T04:47:21.586Z,37.00
2023-01-31T04:49:49.932Z,36.00
2023-01-31T04:52:18.238Z,33.25
2023-01-31T04:54:46.525Z,34.75
2023-01-31T04:57:14.825Z,33.25
2023-01-31T04:59:43.164Z,35.00
2023-01-31T05:02:11.585Z,34.50
2023-01-31T05:04:39.858Z,33.25
2023-01-31T05:07:08.160Z,35.75
2023-01-31T05:09:36.516Z,35.75
2023-01-31T05:12:06.381Z,33.75
2023-01-31T05:14:34.751Z,35.50
2023-01-31T05:17:03.671Z,36.00
2023-01-31T05:19:32.599Z,33.50
2023-01-31T05:22:01.026Z,36.00
2023-01-31T05:24:34.529Z,33.75
2023-01-31T05:27:04.493Z,34.00
2023-01-31T05:29:34.919Z,32.75
2023-01-31T05:32:04.255Z,31.75
2023-01-31T05:34:34.239Z,34.50
2023-01-31T05:37:03.777Z,35.00
2023-01-31T05:39:33.103Z,33.75
2023-01-31T05:42:01.934Z,34.25
2023-01-31T05:44:30.426Z,34.00
2023-01-31T05:46:58.764Z,34.25
2023-01-31T05:49:27.103Z,35.00
2023-01-31T05:51:55.443Z,32.00
2023-01-31T05:54:23.757Z,32.00
2023-01-31T05:56:52.269Z,35.00
2023-01-31T05:59:20.579Z,33.50
2023-01-31T06:01:48.966Z,30.00
2023-01-31T06:04:17.375Z,31.00
2023-01-31T06:06:46.382Z,34.75
2023-01-31T06:09:14.728Z,34.75
2023-01-31T06:11:43.022Z,31.75
2023-01-31T06:14:11.500Z,34.00
2023-01-31T06:16:39.944Z,33.00
2023-01-31T06:19:08.235Z,34.25
2023-01-31T06:21:37.012Z,31.50
2023-01-31T06:24:05.669Z,31.50
2023-01-31T06:26:33.966Z,31.00
2023-01-31T06:29:02.324Z,37.25
2023-01-31T06:31:30.957Z,33.50
2023-01-31T06:34:02.588Z,33.00
2023-01-31T06:36:34.948Z,33.25
2023-01-31T06:39:05.045Z,33.50
2023-01-31T06:41:33.717Z,35.25
2023-01-31T06:44:02.109Z,32.75
2023-01-31T06:46:30.792Z,34.00
2023-01-31T06:48:59.469Z,34.00
2023-01-31T06:51:27.772Z,32.25
2023-01-31T06:53:57.224Z,37.00
2023-01-31T06:56:25.988Z,30.75
2023-01-31T06:58:54.795Z,32.00
2023-01-31T07:01:25.213Z,34.00
2023-01-31T07:03:54.350Z,30.00
2023-01-31T07:06:26.569Z,31.00
2023-01-31T07:08:55.114Z,30.00
2023-01-31T07:11:23.463Z,31.00
2023-01-31T07:13:51.958Z,28.75
2023-01-31T07:16:20.723Z,31.00
2023-01-31T07:18:49.030Z,32.00
2023-01-31T07:21:17.374Z,29.00
2023-01-31T07:23:46.514Z,28.50
2023-01-31T07:26:15.349Z,30.25
2023-01-31T07:28:43.854Z,30.50
2023-01-31T07:31:15.469Z,31.00
2023-01-31T07:33:43.812Z,32.00
2023-01-31T07:36:15.675Z,34.00
2023-01-31T07:38:44.589Z,30.50
2023-01-31T07:41:13.011Z,34.00
2023-01-31T07:43:41.325Z,26.50
2023-01-31T07:46:11.384Z,31.00
2023-01-31T07:48:40.463Z,29.00
2023-01-31T07:51:09.758Z,28.50
2023-01-31T07:53:45.895Z,30.00
2023-01-31T07:56:20.656Z,29.00
2023-01-31T07:58:51.497Z,28.00
2023-01-31T08:01:42.980Z,31.50
2023-01-31T08:04:21.633Z,31.75
2023-01-31T08:06:55.263Z,29.00
2023-01-31T08:09:26.064Z,31.25
2023-01-31T08:11:54.435Z,29.75
2023-01-31T08:14:26.690Z,27.00
2023-01-31T08:16:57.997Z,29.25
2023-01-31T08:19:27.732Z,30.25
2023-01-31T08:21:56.025Z,31.25
2023-01-31T08:24:24.301Z,30.50
2023-01-31T08:26:52.869Z,27.25
2023-01-31T08:29:24.364Z,30.75
2023-01-31T08:31:53.721Z,28.00
2023-01-31T08:34:24.109Z,26.75
2023-01-31T08:36:52.566Z,26.50
2023-01-31T08:39:20.900Z,26.75
2023-01-31T08:41:49.257Z,30.75
2023-01-31T08:44:17.719Z,27.75
2023-01-31T08:46:46.810Z,27.25
2023-01-31T08:49:18.373Z,26.50
2023-01-31T08:51:56.153Z,26.75
2023-01-31T08:57:14.979Z,26.75
2023-01-31T08:59:50.998Z,25.25
2023-01-31T09:02:26.193Z,27.00
2023-01-31T09:04:54.475Z,24.50
2023-01-31T09:07:22.795Z,25.50
2023-01-31T09:09:51.142Z,26.50
2023-01-31T09:12:19.427Z,25.75
2023-01-31T09:14:47.839Z,22.25
2023-01-31T09:17:16.204Z,27.50
2023-01-31T09:19:44.697Z,26.00
2023-01-31T09:22:13.098Z,27.50
2023-01-31T09:24:41.537Z,26.75
2023-01-31T09:27:10.029Z,23.75
2023-01-31T09:29:38.413Z,25.00
2023-01-31T09:32:06.977Z,27.00
2023-01-31T09:34:35.410Z,24.75
2023-01-31T09:37:03.746Z,21.25
2023-01-31T09:39:32.016Z,22.25
2023-01-31T09:42:18.421Z,20.75
2023-01-31T09:44:58.768Z,24.00
2023-01-31T09:47:35.315Z,22.00
2023-01-31T09:50:22.973Z,22.00
2023-01-31T09:52:51.827Z,23.50
2023-01-31T09:55:26.620Z,22.50
2023-01-31T09:58:28.300Z,23.00
2023-01-31T10:01:25.668Z,22.75
2023-01-31T10:04:15.581Z,19.50
2023-01-31T10:07:10.241Z,22.75
2023-01-31T10:09:41.620Z,18.75
2023-01-31T10:12:27.989Z,20.75
2023-01-31T10:15:14.480Z,25.25
2023-01-31T10:17:51.946Z,27.50
2023-01-31T10:20:22.398Z,25.50
2023-01-31T10:23:03.519Z,26.00
2023-01-31T10:26:11.240Z,27.75
2023-01-31T10:28:45.792Z,28.00
2023-01-31T10:31:36.180Z,27.25
2023-01-31T10:34:18.909Z,28.00
2023-01-31T10:37:06.596Z,27.50
2023-01-31T10:39:37.900Z,27.50
2023-01-31T10:42:34.200Z,28.75
2023-01-31T10:45:20.125Z,28.75
2023-01-31T10:48:19.887Z,28.50
2023-01-31T10:51:14.169Z,24.25
2023-01-31T10:54:04.467Z,25.25
2023-01-31T10:56:36.838Z,21.75
2023-01-31T10:59:26.250Z,25.75
2023-01-31T11:01:54.749Z,19.75
2023-01-31T11:04:26.256Z,22.25
2023-01-31T11:06:55.222Z,18.50
2023-01-31T11:09:25.716Z,22.50
2023-01-31T11:11:57.184Z,24.50
2023-01-31T11:14:25.767Z,21.50
2023-01-31T11:17:06.054Z,22.00
2023-01-31T11:19:48.164Z,22.00
2023-01-31T11:22:38.854Z,20.75
2023-01-31T11:25:08.291Z,23.50
2023-01-31T11:27:45.159Z,21.75
2023-01-31T11:30:23.166Z,24.00
2023-01-31T11:32:51.665Z,20.00
2023-01-31T11:35:19.924Z,21.50
2023-01-31T11:38:05.022Z,23.25
2023-01-31T11:40:36.092Z,22.50
2023-01-31T11:43:07.168Z,22.50
2023-01-31T11:45:39.444Z,22.25
2023-01-31T11:48:20.689Z,27.25
2023-01-31T11:51:05.585Z,27.50
2023-01-31T11:53:50.611Z,28.75
2023-01-31T11:56:21.539Z,27.00
2023-01-31T11:58:55.134Z,28.50
2023-01-31T12:01:27.490Z,27.00
2023-01-31T12:04:03.449Z,29.50
2023-01-31T12:06:41.032Z,29.25
2023-01-31T12:09:25.281Z,29.50
2023-01-31T12:12:00.671Z,29.00
2023-01-31T12:14:43.343Z,30.50
2023-01-31T12:17:17.922Z,29.00
2023-01-31T12:19:55.016Z,28.25
2023-01-31T12:22:29.380Z,29.00
2023-01-31T12:25:29.821Z,28.25
2023-01-31T12:28:34.329Z,27.50
2023-01-31T12:31:31.383Z,30.00
2023-01-31T12:34:23.387Z,29.00
2023-01-31T12:37:09.445Z,30.00
2023-01-31T12:39:58.038Z,31.50
2023-01-31T12:42:38.680Z,32.50
2023-01-31T12:45:40.836Z,31.00
2023-01-31T12:48:27.457Z,34.00
2023-01-31T12:51:32.607Z,31.50
2023-01-31T12:54:23.197Z,31.00
2023-01-31T12:57:23.861Z,32.25
2023-01-31T13:00:03.741Z,32.75
2023-01-31T13:02:50.655Z,31.50
2023-01-31T13:05:37.386Z,31.75
2023-01-31T13:08:29.705Z,29.75
2023-01-31T13:11:10.818Z,29.25
2023-01-31T13:13:47.860Z,31.75
2023-01-31T13:16:28.326Z,31.00
2023-01-31T13:19:02.030Z,29.25
2023-01-31T13:21:44.687Z,30.75
2023-01-31T13:24:47.439Z,30.00
2023-01-31T13:27:31.317Z,34.75
2023-01-31T13:30:09.893Z,31.50
2023-01-31T13:32:49.451Z,32.00
2023-01-31T13:35:29.393Z,32.75
2023-01-31T13:38:04.095Z,31.75
2023-01-31T13:40:45.868Z,34.50
2023-01-31T13:43:17.488Z,32.75
2023-01-31T13:46:00.218Z,33.50
2023-01-31T13:48:46.713Z,35.00
2023-01-31T13:51:20.023Z,35.25
2023-01-31T13:54:14.347Z,32.00
2023-01-31T13:56:43.727Z,33.00
2023-01-31T13:59:12.746Z,34.50
2023-01-31T14:01:51.099Z,34.50
2023-01-31T14:04:19.575Z,34.25
2023-01-31T14:07:03.793Z,32.50
2023-01-31T14:09:41.211Z,33.75
2023-01-31T14:12:18.318Z,33.50
2023-01-31T14:14:52.429Z,32.50
2023-01-31T14:17:29.498Z,33.25
2023-01-31T14:19:57.854Z,33.00
2023-01-31T14:22:34.359Z,35.25
2023-01-31T14:25:16.060Z,36.00
2023-01-31T14:27:54.634Z,35.25
2023-01-31T14:30:25.201Z,34.75
2023-01-31T14:33:12.143Z,35.00
2023-01-31T14:35:55.381Z,35.75
2023-01-31T14:39:07.782Z,37.00
2023-01-31T14:41:47.250Z,34.25
2023-01-31T14:44:53.954Z,33.50
2023-01-31T14:47:54.073Z,38.25
2023-01-31T14:50:42.415Z,37.75
2023-01-31T14:53:51.939Z,35.50
2023-01-31T14:56:35.568Z,36.75
2023-01-31T14:59:04.791Z,37.25
2023-01-31T15:01:37.689Z,41.00
2023-01-31T15:04:07.005Z,39.50
2023-01-31T15:06:41.873Z,40.25
2023-01-31T15:09:37.077Z,43.00
2023-01-31T15:12:08.000Z,43.00
2023-01-31T15:14:50.036Z,45.25
2023-01-31T15:17:35.542Z,43.75
2023-01-31T15:20:29.610Z,43.75
2023-01-31T15:23:05.768Z,41.75
2023-01-31T15:25:44.510Z,41.25
2023-01-31T15:28:26.490Z,40.50
2023-01-31T15:30:59.964Z,40.75
2023-01-31T15:33:37.256Z,41.50
2023-01-31T15:36:28.438Z,40.00
2023-01-31T15:39:00.167Z,40.75
2023-01-31T15:41:41.378Z,41.00
2023-01-31T15:44:14.867Z,40.00
2023-01-31T15:46:45.678Z,38.75
2023-01-31T15:49:38.592Z,42.25
2023-01-31T15:52:18.352Z,41.25
2023-01-31T15:54:58.451Z,44.00
2023-01-31T15:57:32.631Z,40.00
2023-01-31T16:00:01.246Z,41.50
2023-01-31T16:02:38.842Z,41.50
2023-01-31T16:05:08.399Z,41.50
2023-01-31T16:07:36.731Z,37.50
2023-01-31T16:10:05.418Z,40.25
2023-01-31T16:12:45.439Z,39.25
2023-01-31T16:15:23.573Z,41.25
2023-01-31T16:17:54.974Z,41.50
2023-01-31T16:20:41.610Z,40.25
2023-01-31T16:23:26.988Z,42.75
2023-01-31T16:25:58.919Z,43.00
2023-01-31T16:28:31.855Z,43.25
2023-01-31T16:31:27.893Z,41.75
2023-01-31T16:34:01.676Z,44.00
2023-01-31T16:36:35.014Z,43.75
2023-01-31T16:39:07.021Z,44.00
2023-01-31T16:41:57.276Z,43.75
2023-01-31T16:44:37.269Z,47.00
2023-01-31T16:47:05.732Z,45.25
2023-01-31T16:49:38.117Z,45.75
2023-01-31T16:52:17.395Z,45.75
2023-01-31T16:54:54.383Z,48.50
2023-01-31T16:57:38.421Z,44.00
2023-01-31T17:00:25.816Z,46.75
2023-01-31T17:02:59.070Z,45.00
2023-01-31T17:05:32.226Z,44.50
2023-01-31T17:08:01.145Z,44.00
2023-01-31T17:10:32.191Z,46.00
2023-01-31T17:13:10.128Z,48.00
2023-01-31T17:15:38.645Z,44.00
2023-01-31T17:18:06.990Z,48.25
2023-01-31T17:20:35.293Z,46.25
2023-01-31T17:23:03.988Z,45.75
2023-01-31T17:25:35.622Z,43.50
2023-01-31T17:28:05.099Z,47.25
2023-01-31T17:30:35.208Z,46.00
2023-01-31T17:33:03.589Z,45.00
2023-01-31T17:35:38.441Z,47.00
2023-01-31T17:38:07.225Z,46.00
2023-01-31T17:40:35.860Z,45.50
2023-01-31T17:43:05.922Z,44.25
2023-01-31T17:45:34.344Z,44.00
2023-01-31T17:48:02.680Z,44.50
2023-01-31T17:50:31.068Z,42.00
2023-01-31T17:52:59.378Z,46.00
2023-01-31T17:55:27.851Z,44.00
2023-01-31T17:57:56.176Z,43.75
2023-01-31T18:00:24.660Z,43.75
2023-01-31T18:02:53.475Z,44.75
2023-01-31T18:05:30.287Z,42.75
2023-01-31T18:08:06.511Z,43.25
2023-01-31T18:10:34.835Z,44.25
2023-01-31T18:13:03.252Z,40.25
2023-01-31T18:15:31.675Z,43.25
2023-01-31T18:18:00.038Z,40.75
2023-01-31T18:20:28.364Z,42.50
2023-01-31T18:22:56.727Z,44.25
2023-01-31T18:25:25.036Z,44.00
2023-01-31T18:27:53.335Z,44.00
2023-01-31T18:30:21.733Z,43.75
2023-01-31T18:32:50.072Z,44.50
2023-01-31T18:35:18.795Z,44.25
2023-01-31T18:37:48.909Z,44.75
2023-01-31T18:40:17.412Z,44.00
2023-01-31T18:42:45.705Z,45.75
2023-01-31T18:45:14.107Z,44.75
2023-01-31T18:47:42.398Z,44.25
2023-01-31T18:50:11.098Z,46.00
2023-01-31T18:52:43.119Z,48.50
2023-01-31T18:55:12.328Z,44.75
2023-01-31T18:57:40.637Z,43.50
2023-01-31T19:00:10.943Z,44.75
2023-01-31T19:02:39.266Z,45.75
2023-01-31T19:05:09.638Z,43.50
2023-01-31T19:07:37.990Z,45.75
2023-01-31T19:10:06.643Z,44.25
2023-01-31T19:12:34.919Z,44.25
2023-01-31T19:15:03.220Z,44.00
2023-01-31T19:17:31.535Z,45.25
2023-01-31T19:19:59.849Z,44.00
2023-01-31T19:22:29.526Z,45.00
2023-01-31T19:24:58.524Z,45.75
2023-01-31T19:27:26.938Z,48.00
2023-01-31T19:29:55.235Z,45.25
2023-01-31T19:32:23.542Z,46.00
2023-01-31T19:34:53.977Z,47.00
2023-01-31T19:37:22.526Z,46.50
2023-01-31T19:39:50.960Z,44.75
2023-01-31T19:42:19.433Z,42.75
2023-01-31T19:44:47.777Z,44.75
2023-01-31T19:47:16.147Z,42.50
2023-01-31T19:49:44.468Z,46.75
2023-01-31T19:52:12.762Z,44.00
2023-01-31T19:54:42.288Z,45.50
2023-01-31T19:57:10.599Z,45.50
2023-01-31T19:59:39.181Z,47.00
2023-01-31T20:02:07.646Z,44.75
2023-01-31T20:04:36.058Z,44.75
2023-01-31T20:07:04.381Z,44.25
2023-01-31T20:09:32.691Z,43.50
2023-01-31T20:12:01.221Z,46.25
2023-01-31T20:14:30.513Z,45.00
2023-01-31T20:16:59.145Z,42.50
2023-01-31T20:19:27.649Z,44.75
2023-01-31T20:21:56.135Z,45.00
2023-01-31T20:24:24.714Z,45.50
2023-01-31T20:26:53.079Z,45.50
2023-01-31T20:29:21.386Z,44.25
2023-01-31T20:31:52.133Z,44.75
2023-01-31T20:34:20.516Z,45.75
2023-01-31T20:36:48.955Z,46.50
2023-01-31T20:39:17.337Z,46.50
2023-01-31T20:41:45.645Z,46.75
2023-01-31T20:44:14.050Z,45.25
2023-01-31T20:46:42.352Z,45.00
2023-01-31T20:49:10.692Z,47.00
2023-01-31T20:51:39.009Z,48.00
2023-01-31T20:54:07.537Z,47.75
2023-01-31T20:56:35.899Z,47.50
2023-01-31T20:59:04.192Z,45.50
2023-01-31T21:01:32.554Z,47.75
2023-01-31T21:04:01.339Z,45.50
2023-01-31T21:06:29.682Z,43.75
2023-01-31T21:08:58.227Z,45.50
2023-01-31T21:11:26.630Z,44.50
2023-01-31T21:13:54.928Z,44.25
2023-01-31T21:16:23.352Z,45.00
2023-01-31T21:18:51.847Z,45.75
2023-01-31T21:21:25.300Z,44.00
2023-01-31T21:24:00.387Z,44.50
2023-01-31T21:26:28.806Z,46.75
2023-01-31T21:28:57.203Z,47.75
2023-01-31T21:31:25.600Z,45.25
2023-01-31T21:33:54.409Z,46.25
2023-01-31T21:36:25.718Z,47.50
2023-01-31T21:38:55.206Z,45.00
2023-01-31T21:41:41.724Z,46.00
2023-01-31T21:44:10.376Z,45.50
2023-01-31T21:46:38.839Z,45.00
2023-01-31T21:49:07.285Z,41.75
2023-01-31T21:51:35.646Z,45.50
2023-01-31T21:54:04.175Z,44.50
2023-01-31T21:56:32.511Z,46.50
2023-01-31T21:59:00.976Z,46.50
2023-01-31T22:01:35.068Z,44.75
2023-01-31T22:04:04.281Z,45.00
2023-01-31T22:06:39.167Z,46.50
2023-01-31T22:09:12.598Z,44.00
2023-01-31T22:11:41.577Z,45.50
2023-01-31T22:14:12.993Z,44.00
2023-01-31T22:16:42.834Z,46.00
2023-01-31T22:19:15.302Z,43.50
2023-01-31T22:21:44.856Z,45.00
2023-01-31T22:24:13.183Z,44.00
2023-01-31T22:26:44.519Z,44.75
2023-01-31T22:29:16.732Z,47.25
2023-01-31T22:31:46.221Z,45.50
2023-01-31T22:34:16.776Z,44.00
2023-01-31T22:36:45.152Z,46.25
2023-01-31T22:39:16.767Z,44.50
2023-01-31T22:41:47.980Z,44.50
2023-01-31T22:44:16.389Z,45.50
2023-01-31T22:46:44.827Z,46.75
2023-01-31T22:49:13.319Z,47.00
2023-01-31T22:51:41.819Z,45.00
2023-01-31T22:54:10.265Z,45.00
2023-01-31T22:56:38.736Z,46.00
2023-01-31T22:59:07.618Z,47.00
2023-01-31T23:01:38.404Z,48.25
2023-01-31T23:04:09.278Z,46.00
2023-01-31T23:06:38.606Z,44.50
2023-01-31T23:09:07.279Z,45.00
2023-01-31T23:11:35.813Z,47.75
2023-01-31T23:14:04.381Z,45.75
2023-01-31T23:16:50.987Z,46.75
2023-01-31T23:19:19.308Z,48.00
2023-01-31T23:21:49.787Z,50.50
2023-01-31T23:24:19.890Z,48.75
2023-01-31T23:26:48.696Z,46.00
2023-01-31T23:29:17.079Z,46.00
2023-01-31T23:31:45.491Z,47.00
2023-01-31T23:34:13.816Z,47.50
2023-01-31T23:36:42.131Z,49.75
2023-01-31T23:39:11.071Z,46.75
2023-01-31T23:41:39.390Z,47.00
2023-01-31T23:44:07.764Z,49.25
2023-01-31T23:46:36.253Z,48.50
2023-01-31T23:49:04.806Z,50.25
2023-01-31T23:51:34.648Z,47.75
2023-01-31T23:54:03.126Z,49.25
2023-01-31T23:56:31.433Z,48.50
2023-01-31T23:58:59.887Z,47.50
